createdAt,value
2022-08-27T00:02:06.408Z,16.40
2022-08-27T00:04:33.600Z,17.13
2022-08-27T00:07:03.734Z,15.45
2022-08-27T00:09:32.159Z,15.98
2022-08-27T00:11:59.820Z,17.83
2022-08-27T00:14:29.560Z,17.80
2022-08-27T00:16:57.726Z,17.15
2022-08-27T00:19:26.255Z,16.77
2022-08-27T00:21:53.456Z,18.35
2022-08-27T00:24:20.551Z,18.77
2022-08-27T00:26:47.858Z,17.75
2022-08-27T00:29:14.965Z,18.38
2022-08-27T00:31:42.169Z,18.15
2022-08-27T00:34:13.030Z,17.83
2022-08-27T00:36:41.568Z,18.05
2022-08-27T00:39:10.015Z,18.65
2022-08-27T00:41:39.623Z,17.13
2022-08-27T00:44:07.694Z,15.88
2022-08-27T00:46:57.610Z,16.13
2022-08-27T00:49:46.826Z,14.98
2022-08-27T00:55:13.845Z,15.10
2022-08-27T01:00:18.736Z,15.05
2022-08-27T01:02:47.729Z,14.85
2022-08-27T01:05:26.562Z,16.75
2022-08-27T01:08:11.443Z,14.68
2022-08-27T01:10:41.958Z,16.33
2022-08-27T01:13:13.318Z,18.33
2022-08-27T01:15:42.627Z,17.65
2022-08-27T01:18:13.932Z,17.85
2022-08-27T01:21:26.905Z,18.73
2022-08-27T01:24:05.144Z,16.88
2022-08-27T01:26:33.164Z,17.80
2022-08-27T01:29:01.752Z,18.15
2022-08-27T01:31:29.463Z,18.50
2022-08-27T01:34:02.341Z,18.98
2022-08-27T01:36:31.181Z,18.20
2022-08-27T01:38:59.049Z,19.83
2022-08-27T01:43:54.704Z,18.60
2022-08-27T01:46:26.067Z,19.42
2022-08-27T01:48:54.882Z,18.23
2022-08-27T01:51:22.825Z,19.63
2022-08-27T01:53:49.995Z,19.52
2022-08-27T01:56:17.163Z,20.20
2022-08-27T01:58:45.052Z,18.05
2022-08-27T02:01:17.042Z,18.52
2022-08-27T02:03:47.481Z,18.77
2022-08-27T02:06:15.370Z,19.05
2022-08-27T02:11:10.153Z,18.98
2022-08-27T02:13:37.740Z,19.95
2022-08-27T02:16:05.621Z,19.55
2022-08-27T02:18:34.980Z,18.90
2022-08-27T02:21:02.641Z,20.65
2022-08-27T02:23:29.736Z,19.88
2022-08-27T02:25:56.786Z,18.98
2022-08-27T02:28:23.836Z,20.55
2022-08-27T02:30:50.939Z,20.25
2022-08-27T02:33:18.144Z,19.67
2022-08-27T02:35:45.328Z,20.63
2022-08-27T02:38:14.268Z,21.05
2022-08-27T02:40:41.812Z,20.85
2022-08-27T02:43:09.779Z,23.98
2022-08-27T02:45:43.282Z,22.27
2022-08-27T02:48:11.899Z,22.77
2022-08-27T02:50:39.298Z,21.20
2022-08-27T02:53:07.588Z,20.75
2022-08-27T02:55:35.639Z,21.20
2022-08-27T02:58:05.241Z,22.77
2022-08-27T03:00:32.879Z,22.63
2022-08-27T03:03:01.114Z,21.38
2022-08-27T03:05:29.069Z,23.67
2022-08-27T03:10:23.223Z,23.02
2022-08-27T03:12:51.066Z,22.60
2022-08-27T03:18:05.999Z,23.50
2022-08-27T03:20:34.206Z,22.13
2022-08-27T03:23:01.378Z,23.10
2022-08-27T03:25:29.005Z,23.45
2022-08-27T03:27:56.145Z,25.42
2022-08-27T03:30:24.679Z,24.90
2022-08-27T03:32:52.177Z,24.45
2022-08-27T03:35:21.308Z,25.50
2022-08-27T03:37:49.449Z,25.40
2022-08-27T03:40:18.941Z,24.48
2022-08-27T03:42:46.127Z,24.55
2022-08-27T03:45:13.759Z,28.65
2022-08-27T03:47:41.016Z,25.95
2022-08-27T03:50:09.953Z,28.05
2022-08-27T03:52:38.834Z,27.02
2022-08-27T03:55:09.604Z,26.67
2022-08-27T03:57:37.708Z,26.13
2022-08-27T04:00:14.213Z,26.30
2022-08-27T04:02:44.282Z,24.35
2022-08-27T04:05:14.679Z,24.70
2022-08-27T04:07:44.295Z,24.35
2022-08-27T04:10:15.510Z,23.20
2022-08-27T04:12:44.701Z,24.52
2022-08-27T04:15:13.543Z,22.67
2022-08-27T04:17:41.583Z,23.42
2022-08-27T04:20:33.961Z,22.98
2022-08-27T04:22:59.269Z,24.20
2022-08-27T04:25:26.390Z,22.17
2022-08-27T04:27:54.036Z,22.80
2022-08-27T04:30:21.270Z,22.38
2022-08-27T04:32:48.557Z,23.48
2022-08-27T04:35:15.679Z,23.15
2022-08-27T04:37:43.366Z,22.55
2022-08-27T04:40:12.524Z,22.08
2022-08-27T04:42:39.677Z,23.73
2022-08-27T04:45:07.965Z,24.55
2022-08-27T04:47:36.892Z,23.27
2022-08-27T04:50:06.445Z,22.15
2022-08-27T04:52:34.926Z,21.15
2022-08-27T04:55:09.313Z,21.70
2022-08-27T04:57:38.146Z,21.05
2022-08-27T05:00:08.210Z,20.73
2022-08-27T05:02:35.279Z,19.40
2022-08-27T05:05:02.442Z,20.00
2022-08-27T05:07:29.482Z,20.23
2022-08-27T05:09:56.659Z,19.77
2022-08-27T05:12:24.237Z,20.55
2022-08-27T05:14:51.288Z,20.00
2022-08-27T05:17:18.329Z,19.27
2022-08-27T05:19:45.407Z,20.33
2022-08-27T05:22:12.581Z,20.13
2022-08-27T05:24:39.684Z,20.90
2022-08-27T05:27:06.774Z,19.38
2022-08-27T05:29:36.900Z,19.35
2022-08-27T05:32:05.020Z,20.55
2022-08-27T05:34:32.291Z,19.60
2022-08-27T05:36:59.399Z,18.75
2022-08-27T05:39:26.511Z,19.60
2022-08-27T05:41:57.838Z,20.00
2022-08-27T05:44:41.658Z,18.27
2022-08-27T05:47:10.335Z,19.73
2022-08-27T05:49:38.069Z,18.77
2022-08-27T05:52:11.701Z,19.27
2022-08-27T05:54:40.314Z,18.60
2022-08-27T05:57:07.814Z,19.95
2022-08-27T05:59:54.519Z,19.63
2022-08-27T06:02:21.953Z,19.15
2022-08-27T06:04:49.453Z,20.80
2022-08-27T06:07:17.162Z,21.13
2022-08-27T06:09:44.276Z,20.55
2022-08-27T06:12:15.535Z,20.45
2022-08-27T06:14:42.645Z,19.83
2022-08-27T06:17:09.762Z,18.80
2022-08-27T06:19:36.887Z,19.05
2022-08-27T06:22:10.407Z,20.17
2022-08-27T06:24:42.012Z,18.17
2022-08-27T06:27:15.437Z,17.83
2022-08-27T06:29:45.219Z,19.27
2022-08-27T06:32:15.019Z,17.85
2022-08-27T06:34:42.674Z,18.35
2022-08-27T06:37:10.044Z,17.88
2022-08-27T06:39:39.829Z,18.90
2022-08-27T06:42:15.709Z,17.70
2022-08-27T06:44:42.993Z,17.92
2022-08-27T06:47:11.795Z,19.00
2022-08-27T06:49:43.852Z,17.73
2022-08-27T06:52:14.430Z,15.60
2022-08-27T06:54:41.663Z,17.63
2022-08-27T06:57:08.971Z,17.08
2022-08-27T06:59:36.396Z,15.68
2022-08-27T07:02:05.940Z,15.73
2022-08-27T07:04:33.593Z,14.32
2022-08-27T07:07:05.004Z,16.67
2022-08-27T07:09:34.970Z,16.23
2022-08-27T07:12:03.146Z,18.08
2022-08-27T07:14:37.102Z,16.23
2022-08-27T07:17:10.815Z,16.38
2022-08-27T07:19:41.212Z,18.05
2022-08-27T07:22:09.556Z,16.33
2022-08-27T07:24:38.216Z,17.30
2022-08-27T07:27:06.570Z,18.08
2022-08-27T07:29:33.830Z,16.70
2022-08-27T07:32:00.905Z,16.48
2022-08-27T07:34:28.248Z,16.60
2022-08-27T07:36:55.633Z,17.30
2022-08-27T07:39:23.786Z,17.63
2022-08-27T07:42:10.759Z,17.10
2022-08-27T07:44:38.140Z,17.80
2022-08-27T07:47:05.323Z,17.15
2022-08-27T07:49:35.096Z,17.77
2022-08-27T07:52:04.117Z,17.98
2022-08-27T07:54:31.461Z,17.88
2022-08-27T07:56:59.421Z,17.77
2022-08-27T07:59:27.743Z,16.00
2022-08-27T08:01:57.147Z,16.40
2022-08-27T08:04:26.752Z,17.25
2022-08-27T08:06:55.946Z,16.33
2022-08-27T08:09:25.225Z,15.57
2022-08-27T08:11:54.639Z,15.80
2022-08-27T08:14:22.465Z,15.93
2022-08-27T08:19:17.314Z,14.52
2022-08-27T08:21:44.411Z,14.27
2022-08-27T08:24:11.600Z,14.65
2022-08-27T08:26:38.806Z,15.43
2022-08-27T08:29:05.936Z,14.43
2022-08-27T08:31:33.485Z,15.45
2022-08-27T08:34:01.246Z,14.77
2022-08-27T08:38:56.441Z,13.20
2022-08-27T08:44:38.854Z,13.57
2022-08-27T08:47:27.932Z,12.27
2022-08-27T08:50:26.109Z,11.18
2022-08-27T08:53:20.175Z,14.00
2022-08-27T08:56:05.591Z,13.20
2022-08-27T08:59:14.637Z,14.45
2022-08-27T09:01:44.458Z,13.13
2022-08-27T09:04:13.375Z,13.63
2022-08-27T09:07:11.987Z,14.38
2022-08-27T09:10:13.439Z,14.02
2022-08-27T09:12:41.622Z,14.50
2022-08-27T09:15:23.587Z,14.07
2022-08-27T09:17:51.375Z,15.75
2022-08-27T09:20:25.701Z,15.90
2022-08-27T09:23:43.833Z,15.07
2022-08-27T09:26:26.144Z,14.45
2022-08-27T09:29:20.322Z,13.93
2022-08-27T09:32:08.798Z,14.90
2022-08-27T09:34:42.632Z,14.63
2022-08-27T09:37:38.877Z,13.70
2022-08-27T09:40:28.022Z,14.25
2022-08-27T09:43:07.463Z,14.25
2022-08-27T09:45:35.884Z,13.90
2022-08-27T09:48:10.224Z,14.70
2022-08-27T09:50:54.402Z,13.73
2022-08-27T09:53:36.557Z,13.70
2022-08-27T09:56:10.101Z,14.80
2022-08-27T09:58:43.360Z,13.50
2022-08-27T10:01:24.307Z,14.18
2022-08-27T10:04:07.654Z,13.48
2022-08-27T10:06:35.920Z,13.50
2022-08-27T10:09:38.291Z,14.90
2022-08-27T10:12:50.445Z,13.50
2022-08-27T10:15:18.599Z,14.45
2022-08-27T10:18:17.806Z,13.70
2022-08-27T10:21:22.798Z,14.25
2022-08-27T10:24:10.430Z,14.43
2022-08-27T10:27:18.146Z,14.70
2022-08-27T10:30:01.394Z,14.50
2022-08-27T10:33:23.805Z,14.40
2022-08-27T10:36:16.899Z,13.05
2022-08-27T10:39:07.702Z,11.93
2022-08-27T10:41:46.637Z,9.70
2022-08-27T10:44:48.658Z,10.50
2022-08-27T10:47:50.034Z,9.85
2022-08-27T10:50:59.906Z,10.02
2022-08-27T10:53:59.796Z,9.45
2022-08-27T10:56:40.599Z,9.95
2022-08-27T10:59:29.220Z,9.45
2022-08-27T11:02:34.622Z,10.73
2022-08-27T11:05:23.536Z,10.02
2022-08-27T11:08:14.149Z,9.20
2022-08-27T11:10:57.065Z,9.40
2022-08-27T11:13:34.141Z,10.07
2022-08-27T11:16:35.875Z,9.65
2022-08-27T11:19:42.100Z,10.18
2022-08-27T11:22:26.237Z,11.07
2022-08-27T11:25:44.462Z,10.30
2022-08-27T11:28:14.868Z,10.68
2022-08-27T11:31:26.061Z,11.50
2022-08-27T11:34:43.491Z,11.23
2022-08-27T11:37:45.434Z,10.52
2022-08-27T11:40:42.783Z,10.65
2022-08-27T11:43:22.554Z,9.95
2022-08-27T11:46:08.689Z,10.23
2022-08-27T11:48:44.280Z,9.15
2022-08-27T11:51:33.075Z,9.88
2022-08-27T11:54:24.056Z,9.40
2022-08-27T11:56:52.235Z,9.00
2022-08-27T11:59:28.301Z,9.70
2022-08-27T12:02:20.640Z,9.82
2022-08-27T12:04:49.629Z,10.27
2022-08-27T12:07:21.888Z,9.93
2022-08-27T12:10:29.441Z,9.38
2022-08-27T12:13:34.548Z,9.60
2022-08-27T12:16:41.806Z,9.38
2022-08-27T12:19:34.503Z,9.45
2022-08-27T12:23:23.097Z,8.77
2022-08-27T12:26:21.167Z,8.43
2022-08-27T12:28:48.348Z,8.77
2022-08-27T12:31:23.710Z,8.60
2022-08-27T12:33:54.940Z,9.45
2022-08-27T12:36:28.600Z,8.32
2022-08-27T12:39:00.072Z,9.10
2022-08-27T12:41:43.559Z,9.32
2022-08-27T12:44:33.608Z,8.48
2022-08-27T12:47:16.277Z,8.88
2022-08-27T12:49:57.629Z,9.35
2022-08-27T12:53:04.505Z,8.25
2022-08-27T12:56:02.149Z,7.55
2022-08-27T12:59:21.376Z,7.70
2022-08-27T13:02:53.854Z,8.00
2022-08-27T13:05:24.834Z,7.28
2022-08-27T13:07:54.765Z,6.65
2022-08-27T13:10:32.337Z,8.10
2022-08-27T13:13:18.748Z,8.30
2022-08-27T13:16:01.265Z,7.30
2022-08-27T13:18:29.991Z,7.32
2022-08-27T13:21:13.782Z,7.85
2022-08-27T13:23:57.541Z,7.88
2022-08-27T13:26:32.267Z,8.60
2022-08-27T13:29:03.739Z,7.93
2022-08-27T13:31:34.541Z,8.05
2022-08-27T13:34:07.146Z,8.35
2022-08-27T13:42:05.231Z,9.55
2022-08-27T13:44:39.757Z,8.82
2022-08-27T13:47:23.166Z,8.57
2022-08-27T13:50:01.347Z,9.32
2022-08-27T13:52:56.998Z,8.57
2022-08-27T13:55:24.587Z,8.23
2022-08-27T14:00:33.983Z,8.80
2022-08-27T14:03:02.405Z,8.45
2022-08-27T14:05:36.904Z,8.23
2022-08-27T14:08:19.916Z,9.45
2022-08-27T14:11:04.084Z,9.18
2022-08-27T14:13:45.618Z,8.52
2022-08-27T14:16:30.430Z,9.00
2022-08-27T14:19:14.040Z,9.18
2022-08-27T14:21:46.224Z,9.30
2022-08-27T14:24:13.853Z,9.27
2022-08-27T14:29:11.737Z,8.95
2022-08-27T14:31:39.590Z,9.30
2022-08-27T14:34:08.482Z,8.68
2022-08-27T14:36:41.974Z,9.15
2022-08-27T14:39:13.010Z,8.85
2022-08-27T14:41:40.453Z,8.90
2022-08-27T14:44:07.668Z,9.23
2022-08-27T14:46:43.014Z,8.63
2022-08-27T14:49:31.441Z,8.98
2022-08-27T14:51:58.897Z,8.98
2022-08-27T14:54:29.071Z,8.45
2022-08-27T14:57:03.096Z,8.35
2022-08-27T14:59:31.983Z,7.72
2022-08-27T15:02:08.207Z,7.35
2022-08-27T15:04:35.418Z,7.38
2022-08-27T15:07:04.527Z,7.32
2022-08-27T15:09:31.626Z,7.55
2022-08-27T15:11:59.851Z,7.63
2022-08-27T15:14:36.232Z,7.72
2022-08-27T15:17:11.015Z,7.88
2022-08-27T15:19:54.250Z,7.72
2022-08-27T15:22:31.347Z,7.20
2022-08-27T15:25:00.100Z,7.68
2022-08-27T15:27:38.491Z,7.80
2022-08-27T15:30:14.183Z,8.63
2022-08-27T15:32:48.060Z,8.40
2022-08-27T15:35:26.365Z,8.40
2022-08-27T15:40:28.311Z,9.05
2022-08-27T15:43:06.358Z,8.65
2022-08-27T15:45:33.736Z,9.25
2022-08-27T15:48:02.042Z,9.13
2022-08-27T15:50:32.366Z,9.77
2022-08-27T15:53:07.028Z,7.88
2022-08-27T15:55:42.461Z,9.38
2022-08-27T15:58:11.096Z,9.00
2022-08-27T16:00:42.054Z,8.82
2022-08-27T16:03:16.373Z,10.25
2022-08-27T16:05:47.261Z,8.27
2022-08-27T16:08:14.968Z,9.55
2022-08-27T16:13:08.977Z,7.95
2022-08-27T16:15:40.056Z,8.65
2022-08-27T16:18:09.866Z,8.10
2022-08-27T16:20:37.447Z,8.27
2022-08-27T16:23:05.143Z,8.32
2022-08-27T16:28:01.067Z,7.82
2022-08-27T16:30:29.910Z,7.78
2022-08-27T16:32:57.912Z,7.35
2022-08-27T16:35:25.225Z,8.38
2022-08-27T16:37:52.598Z,7.93
2022-08-27T16:40:19.929Z,8.23
2022-08-27T16:42:52.165Z,7.43
2022-08-27T16:45:23.810Z,7.72
2022-08-27T16:48:10.170Z,7.03
2022-08-27T16:50:39.934Z,7.82
2022-08-27T16:53:15.337Z,6.70
2022-08-27T16:55:46.063Z,6.80
2022-08-27T16:58:25.617Z,6.70
2022-08-27T17:01:02.830Z,6.38
2022-08-27T17:03:31.589Z,6.28
2022-08-27T17:05:59.048Z,6.97
2022-08-27T17:08:27.715Z,5.45
2022-08-27T17:10:57.591Z,5.35
2022-08-27T17:13:32.836Z,4.88
2022-08-27T17:16:01.786Z,4.68
2022-08-27T17:18:29.574Z,4.90
2022-08-27T17:21:00.417Z,4.78
2022-08-27T17:23:49.272Z,4.57
2022-08-27T17:26:19.715Z,4.88
2022-08-27T17:28:48.313Z,5.00
2022-08-27T17:31:32.213Z,4.18
2022-08-27T17:34:01.945Z,4.70
2022-08-27T17:36:31.783Z,4.50
2022-08-27T17:39:00.731Z,4.50
2022-08-27T17:41:38.900Z,5.47
2022-08-27T17:44:31.724Z,5.05
2022-08-27T17:47:07.170Z,4.70
2022-08-27T17:49:35.165Z,4.60
2022-08-27T17:52:12.596Z,4.53
2022-08-27T17:55:01.368Z,4.90
2022-08-27T17:57:41.035Z,5.55
2022-08-27T18:00:13.246Z,5.80
2022-08-27T18:02:49.810Z,5.43
2022-08-27T18:05:22.815Z,5.93
2022-08-27T18:07:52.246Z,6.68
2022-08-27T18:10:26.090Z,6.28
2022-08-27T18:12:56.145Z,6.88
2022-08-27T18:15:36.136Z,6.07
2022-08-27T18:18:07.711Z,5.28
2022-08-27T18:20:37.545Z,5.15
2022-08-27T18:23:11.159Z,4.90
2022-08-27T18:25:41.179Z,5.10
2022-08-27T18:28:14.052Z,4.55
2022-08-27T18:30:45.774Z,4.60
2022-08-27T18:33:14.541Z,4.30
2022-08-27T18:35:42.978Z,4.53
2022-08-27T18:38:10.446Z,4.18
2022-08-27T18:40:51.853Z,4.85
2022-08-27T18:43:29.730Z,4.15
2022-08-27T18:45:57.172Z,4.60
2022-08-27T18:48:24.459Z,4.45
2022-08-27T18:50:58.854Z,4.43
2022-08-27T18:53:33.130Z,4.72
2022-08-27T18:56:01.669Z,4.90
2022-08-27T18:58:29.489Z,4.35
2022-08-27T19:03:43.988Z,4.72
2022-08-27T19:06:12.259Z,4.35
2022-08-27T19:08:41.171Z,4.55
2022-08-27T19:11:09.242Z,4.28
2022-08-27T19:13:37.372Z,4.55
2022-08-27T19:16:13.941Z,4.03
2022-08-27T19:18:43.003Z,4.00
2022-08-27T19:21:10.628Z,4.22
2022-08-27T19:23:38.652Z,4.28
2022-08-27T19:26:18.409Z,4.35
2022-08-27T19:28:46.030Z,3.65
2022-08-27T19:31:15.621Z,4.07
2022-08-27T19:33:44.943Z,4.20
2022-08-27T19:36:18.713Z,4.00
2022-08-27T19:38:51.252Z,3.97
2022-08-27T19:41:21.450Z,4.00
2022-08-27T19:43:50.914Z,4.00
2022-08-27T19:46:23.987Z,3.80
2022-08-27T19:48:51.798Z,3.90
2022-08-27T19:53:46.326Z,4.35
2022-08-27T19:56:15.195Z,4.43
2022-08-27T19:58:43.940Z,4.00
2022-08-27T20:01:12.688Z,4.68
2022-08-27T20:03:40.541Z,3.90
2022-08-27T20:08:34.911Z,4.60
2022-08-27T20:11:01.982Z,4.88
2022-08-27T20:13:33.087Z,4.80
2022-08-27T20:16:01.345Z,5.10
2022-08-27T20:18:28.850Z,4.47
2022-08-27T20:20:56.313Z,4.68
2022-08-27T20:23:23.861Z,4.72
2022-08-27T20:25:56.693Z,4.43
2022-08-27T20:28:43.338Z,5.00
2022-08-27T20:31:10.831Z,5.28
2022-08-27T20:33:38.379Z,4.78
2022-08-27T20:36:08.652Z,5.43
2022-08-27T20:38:36.297Z,5.18
2022-08-27T20:41:06.040Z,4.40
2022-08-27T20:43:35.672Z,5.70
2022-08-27T20:46:04.226Z,5.57
2022-08-27T20:48:31.809Z,6.28
2022-08-27T20:50:58.983Z,6.30
2022-08-27T20:53:26.091Z,6.70
2022-08-27T20:55:56.756Z,6.32
2022-08-27T20:58:44.396Z,6.22
2022-08-27T21:01:12.816Z,7.10
2022-08-27T21:03:39.919Z,6.22
2022-08-27T21:06:07.669Z,6.10
2022-08-27T21:08:36.869Z,5.80
2022-08-27T21:13:55.321Z,6.63
2022-08-27T21:16:25.515Z,6.55
2022-08-27T21:18:53.842Z,6.47
2022-08-27T21:21:21.547Z,7.28
2022-08-27T21:23:49.165Z,6.55
2022-08-27T21:26:16.311Z,6.40
2022-08-27T21:28:44.387Z,7.72
2022-08-27T21:31:11.652Z,7.60
2022-08-27T21:33:39.508Z,6.55
2022-08-27T21:36:11.810Z,6.45
2022-08-27T21:38:40.059Z,6.68
2022-08-27T21:43:34.940Z,7.32
2022-08-27T21:46:01.992Z,7.35
2022-08-27T21:48:29.573Z,7.40
2022-08-27T21:50:56.682Z,6.80
2022-08-27T21:53:24.072Z,7.78
2022-08-27T21:55:54.394Z,7.85
2022-08-27T21:58:26.197Z,7.45
2022-08-27T22:00:54.018Z,7.50
2022-08-27T22:03:25.549Z,7.35
2022-08-27T22:05:53.501Z,7.78
2022-08-27T22:08:23.535Z,8.80
2022-08-27T22:10:57.986Z,8.93
2022-08-27T22:13:26.206Z,9.95
2022-08-27T22:15:53.383Z,8.35
2022-08-27T22:18:23.029Z,8.70
2022-08-27T22:20:53.335Z,9.57
2022-08-27T22:23:22.155Z,9.82
2022-08-27T22:25:49.204Z,10.05
2022-08-27T22:28:17.847Z,9.00
2022-08-27T22:30:46.298Z,9.95
2022-08-27T22:33:13.995Z,8.98
2022-08-27T22:35:41.696Z,10.05
2022-08-27T22:38:11.160Z,9.63
2022-08-27T22:40:39.570Z,10.13
2022-08-27T22:43:07.814Z,9.85
2022-08-27T22:45:34.817Z,9.88
2022-08-27T22:48:02.133Z,9.93
2022-08-27T22:50:29.162Z,9.48
2022-08-27T22:52:56.406Z,10.23
2022-08-27T22:55:25.119Z,10.27
2022-08-27T22:57:56.370Z,9.02
2022-08-27T23:00:39.153Z,10.32
2022-08-27T23:03:11.477Z,9.55
2022-08-27T23:05:40.380Z,10.25
2022-08-27T23:08:12.293Z,9.68
2022-08-27T23:10:41.068Z,9.30
2022-08-27T23:13:09.912Z,9.88
2022-08-27T23:15:38.868Z,10.23
2022-08-27T23:18:07.120Z,10.82
2022-08-27T23:20:34.588Z,10.10
2022-08-27T23:23:02.688Z,11.15
2022-08-27T23:26:08.553Z,11.18
2022-08-27T23:28:35.657Z,10.93
2022-08-27T23:31:02.953Z,11.02
2022-08-27T23:33:30.026Z,10.30
2022-08-27T23:35:57.064Z,10.43
2022-08-27T23:38:24.054Z,10.38
2022-08-27T23:40:52.472Z,9.70
2022-08-27T23:43:20.610Z,9.27
2022-08-27T23:45:48.619Z,9.65
2022-08-27T23:48:15.982Z,9.40
2022-08-27T23:50:43.120Z,10.23
2022-08-27T23:53:11.961Z,9.65
2022-08-27T23:55:40.548Z,10.25
2022-08-27T23:58:09.528Z,10.60
